sensor_id;sensor_type;location;lat;lon;timestamp;P1;durP1;ratioP1;P2;durP2;ratioP2
56255;SDS011;57229;51.432;-2.598;2022-12-05T00:01:39;16.17;;;10.18;;
56255;SDS011;57229;51.432;-2.598;2022-12-05T00:04:09;13.27;;;9.90;;
56255;SDS011;57229;51.432;-2.598;2022-12-05T00:06:37;14.95;;;10.07;;
56255;SDS011;57229;51.432;-2.598;2022-12-05T00:09:05;14.48;;;10.48;;
56255;SDS011;57229;51.432;-2.598;2022-12-05T00:11:33;13.85;;;9.55;;
56255;SDS011;57229;51.432;-2.598;2022-12-05T00:14:00;14.63;;;10.00;;
56255;SDS011;57229;51.432;-2.598;2022-12-05T00:16:29;14.43;;;9.93;;
56255;SDS011;57229;51.432;-2.598;2022-12-05T00:19:00;13.95;;;10.20;;
56255;SDS011;57229;51.432;-2.598;2022-12-05T00:21:28;16.13;;;10.57;;
56255;SDS011;57229;51.432;-2.598;2022-12-05T00:24:03;13.88;;;10.02;;
56255;SDS011;57229;51.432;-2.598;2022-12-05T00:26:31;13.73;;;9.40;;
56255;SDS011;57229;51.432;-2.598;2022-12-05T00:28:58;13.32;;;10.10;;
56255;SDS011;57229;51.432;-2.598;2022-12-05T00:31:28;12.93;;;9.77;;
56255;SDS011;57229;51.432;-2.598;2022-12-05T00:33:54;13.38;;;9.38;;
56255;SDS011;57229;51.432;-2.598;2022-12-05T00:36:25;14.52;;;10.25;;
56255;SDS011;57229;51.432;-2.598;2022-12-05T00:38:57;14.48;;;9.88;;
56255;SDS011;57229;51.432;-2.598;2022-12-05T00:41:32;13.02;;;10.38;;
56255;SDS011;57229;51.432;-2.598;2022-12-05T00:43:58;12.90;;;9.48;;
56255;SDS011;57229;51.432;-2.598;2022-12-05T00:46:26;12.18;;;9.45;;
56255;SDS011;57229;51.432;-2.598;2022-12-05T00:48:57;13.70;;;9.68;;
56255;SDS011;57229;51.432;-2.598;2022-12-05T00:51:27;14.30;;;9.95;;
56255;SDS011;57229;51.432;-2.598;2022-12-05T00:54:11;12.90;;;9.63;;
56255;SDS011;57229;51.432;-2.598;2022-12-05T00:56:39;12.05;;;9.27;;
56255;SDS011;57229;51.432;-2.598;2022-12-05T00:59:05;15.20;;;10.05;;
56255;SDS011;57229;51.432;-2.598;2022-12-05T01:01:33;16.42;;;10.38;;
56255;SDS011;57229;51.432;-2.598;2022-12-05T01:04:02;14.93;;;10.07;;
56255;SDS011;57229;51.432;-2.598;2022-12-05T01:06:30;12.35;;;9.82;;
56255;SDS011;57229;51.432;-2.598;2022-12-05T01:08:56;14.52;;;9.80;;
56255;SDS011;57229;51.432;-2.598;2022-12-05T01:11:23;14.77;;;10.40;;
56255;SDS011;57229;51.432;-2.598;2022-12-05T01:13:53;13.85;;;9.45;;
56255;SDS011;57229;51.432;-2.598;2022-12-05T01:16:25;14.10;;;10.05;;
56255;SDS011;57229;51.432;-2.598;2022-12-05T01:18:57;14.43;;;9.88;;
56255;SDS011;57229;51.432;-2.598;2022-12-05T01:21:43;14.02;;;10.15;;
56255;SDS011;57229;51.432;-2.598;2022-12-05T01:24:09;12.38;;;9.82;;
56255;SDS011;57229;51.432;-2.598;2022-12-05T01:26:36;12.55;;;9.23;;
56255;SDS011;57229;51.432;-2.598;2022-12-05T01:29:04;14.60;;;9.68;;
56255;SDS011;57229;51.432;-2.598;2022-12-05T01:31:32;12.45;;;9.52;;
56255;SDS011;57229;51.432;-2.598;2022-12-05T01:34:00;15.63;;;10.15;;
56255;SDS011;57229;51.432;-2.598;2022-12-05T01:36:27;13.65;;;9.90;;
56255;SDS011;57229;51.432;-2.598;2022-12-05T01:38:54;14.38;;;10.07;;
56255;SDS011;57229;51.432;-2.598;2022-12-05T01:41:50;13.68;;;10.05;;
56255;SDS011;57229;51.432;-2.598;2022-12-05T01:46:49;12.80;;;9.75;;
56255;SDS011;57229;51.432;-2.598;2022-12-05T01:51:49;12.88;;;9.15;;
56255;SDS011;57229;51.432;-2.598;2022-12-05T01:54:18;12.90;;;9.60;;
56255;SDS011;57229;51.432;-2.598;2022-12-05T01:56:50;12.38;;;9.68;;
56255;SDS011;57229;51.432;-2.598;2022-12-05T01:59:29;12.40;;;9.27;;
56255;SDS011;57229;51.432;-2.598;2022-12-05T02:01:59;13.43;;;9.00;;
56255;SDS011;57229;51.432;-2.598;2022-12-05T02:07:30;14.07;;;9.27;;
56255;SDS011;57229;51.432;-2.598;2022-12-05T02:09:57;11.48;;;9.20;;
56255;SDS011;57229;51.432;-2.598;2022-12-05T02:12:27;12.48;;;9.20;;
56255;SDS011;57229;51.432;-2.598;2022-12-05T02:14:58;12.88;;;9.48;;
56255;SDS011;57229;51.432;-2.598;2022-12-05T02:18:00;11.70;;;8.65;;
56255;SDS011;57229;51.432;-2.598;2022-12-05T02:29:14;12.50;;;9.40;;
56255;SDS011;57229;51.432;-2.598;2022-12-05T02:31:49;12.60;;;8.95;;
56255;SDS011;57229;51.432;-2.598;2022-12-05T02:34:33;12.57;;;9.52;;
56255;SDS011;57229;51.432;-2.598;2022-12-05T02:37:07;12.73;;;8.27;;
56255;SDS011;57229;51.432;-2.598;2022-12-05T02:39:37;17.48;;;7.80;;
56255;SDS011;57229;51.432;-2.598;2022-12-05T02:42:36;16.10;;;7.95;;
56255;SDS011;57229;51.432;-2.598;2022-12-05T02:45:24;11.77;;;8.32;;
56255;SDS011;57229;51.432;-2.598;2022-12-05T02:47:53;13.32;;;8.88;;
56255;SDS011;57229;51.432;-2.598;2022-12-05T02:50:36;12.65;;;8.45;;
56255;SDS011;57229;51.432;-2.598;2022-12-05T02:53:07;12.40;;;8.48;;
56255;SDS011;57229;51.432;-2.598;2022-12-05T02:55:41;14.02;;;8.65;;
56255;SDS011;57229;51.432;-2.598;2022-12-05T02:58:16;11.80;;;7.90;;
56255;SDS011;57229;51.432;-2.598;2022-12-05T03:00:48;10.27;;;7.90;;
56255;SDS011;57229;51.432;-2.598;2022-12-05T03:03:23;10.45;;;7.97;;
56255;SDS011;57229;51.432;-2.598;2022-12-05T03:05:55;10.93;;;8.23;;
56255;SDS011;57229;51.432;-2.598;2022-12-05T03:08:34;18.67;;;8.52;;
56255;SDS011;57229;51.432;-2.598;2022-12-05T03:11:06;11.75;;;8.30;;
56255;SDS011;57229;51.432;-2.598;2022-12-05T03:13:41;14.93;;;8.15;;
56255;SDS011;57229;51.432;-2.598;2022-12-05T03:16:16;11.10;;;7.80;;
56255;SDS011;57229;51.432;-2.598;2022-12-05T03:19:20;13.00;;;7.55;;
56255;SDS011;57229;51.432;-2.598;2022-12-05T03:24:26;11.63;;;8.20;;
56255;SDS011;57229;51.432;-2.598;2022-12-05T03:26:59;12.05;;;8.45;;
56255;SDS011;57229;51.432;-2.598;2022-12-05T03:29:44;11.77;;;8.20;;
56255;SDS011;57229;51.432;-2.598;2022-12-05T03:32:32;9.73;;;8.10;;
56255;SDS011;57229;51.432;-2.598;2022-12-05T03:46:23;13.15;;;8.30;;
56255;SDS011;57229;51.432;-2.598;2022-12-05T03:48:56;9.60;;;7.80;;
56255;SDS011;57229;51.432;-2.598;2022-12-05T03:51:36;18.50;;;8.30;;
56255;SDS011;57229;51.432;-2.598;2022-12-05T03:54:49;11.23;;;8.20;;
56255;SDS011;57229;51.432;-2.598;2022-12-05T03:57:32;10.30;;;7.93;;
56255;SDS011;57229;51.432;-2.598;2022-12-05T04:05:45;11.30;;;7.90;;
56255;SDS011;57229;51.432;-2.598;2022-12-05T04:08:19;11.68;;;8.48;;
56255;SDS011;57229;51.432;-2.598;2022-12-05T04:10:49;13.48;;;8.68;;
56255;SDS011;57229;51.432;-2.598;2022-12-05T04:13:23;11.93;;;8.60;;
56255;SDS011;57229;51.432;-2.598;2022-12-05T04:16:17;10.65;;;8.60;;
56255;SDS011;57229;51.432;-2.598;2022-12-05T04:19:18;11.88;;;8.60;;
56255;SDS011;57229;51.432;-2.598;2022-12-05T04:21:52;9.35;;;7.47;;
56255;SDS011;57229;51.432;-2.598;2022-12-05T04:24:22;10.98;;;8.93;;
56255;SDS011;57229;51.432;-2.598;2022-12-05T04:27:33;11.38;;;9.05;;
56255;SDS011;57229;51.432;-2.598;2022-12-05T04:30:44;10.88;;;8.35;;
56255;SDS011;57229;51.432;-2.598;2022-12-05T04:38:45;10.80;;;8.18;;
56255;SDS011;57229;51.432;-2.598;2022-12-05T04:41:27;12.68;;;8.38;;
56255;SDS011;57229;51.432;-2.598;2022-12-05T04:43:58;11.40;;;8.85;;
56255;SDS011;57229;51.432;-2.598;2022-12-05T04:46:27;11.10;;;8.60;;
56255;SDS011;57229;51.432;-2.598;2022-12-05T04:48:55;10.90;;;8.55;;
56255;SDS011;57229;51.432;-2.598;2022-12-05T04:51:26;12.25;;;9.35;;
56255;SDS011;57229;51.432;-2.598;2022-12-05T04:53:57;12.45;;;9.23;;
56255;SDS011;57229;51.432;-2.598;2022-12-05T04:56:29;11.05;;;8.52;;
56255;SDS011;57229;51.432;-2.598;2022-12-05T04:59:19;12.40;;;8.80;;
56255;SDS011;57229;51.432;-2.598;2022-12-05T05:01:52;12.07;;;8.90;;
56255;SDS011;57229;51.432;-2.598;2022-12-05T05:04:25;10.75;;;8.50;;
56255;SDS011;57229;51.432;-2.598;2022-12-05T05:06:56;12.20;;;9.20;;
56255;SDS011;57229;51.432;-2.598;2022-12-05T05:09:29;14.52;;;8.98;;
56255;SDS011;57229;51.432;-2.598;2022-12-05T05:11:54;12.85;;;8.82;;
56255;SDS011;57229;51.432;-2.598;2022-12-05T05:14:21;15.52;;;9.40;;
56255;SDS011;57229;51.432;-2.598;2022-12-05T05:16:47;13.13;;;8.85;;
56255;SDS011;57229;51.432;-2.598;2022-12-05T05:19:13;13.52;;;9.65;;
56255;SDS011;57229;51.432;-2.598;2022-12-05T05:21:40;12.93;;;9.80;;
56255;SDS011;57229;51.432;-2.598;2022-12-05T05:24:07;12.43;;;8.88;;
56255;SDS011;57229;51.432;-2.598;2022-12-05T05:26:39;12.27;;;9.00;;
56255;SDS011;57229;51.432;-2.598;2022-12-05T05:29:06;10.82;;;8.85;;
56255;SDS011;57229;51.432;-2.598;2022-12-05T05:31:34;13.32;;;9.52;;
56255;SDS011;57229;51.432;-2.598;2022-12-05T05:34:04;16.40;;;9.48;;
56255;SDS011;57229;51.432;-2.598;2022-12-05T05:36:31;13.23;;;9.73;;
56255;SDS011;57229;51.432;-2.598;2022-12-05T05:38:57;13.18;;;9.90;;
56255;SDS011;57229;51.432;-2.598;2022-12-05T05:41:29;15.05;;;9.48;;
56255;SDS011;57229;51.432;-2.598;2022-12-05T05:43:57;13.13;;;10.05;;
56255;SDS011;57229;51.432;-2.598;2022-12-05T05:46:25;13.82;;;9.57;;
56255;SDS011;57229;51.432;-2.598;2022-12-05T05:48:54;12.45;;;9.75;;
56255;SDS011;57229;51.432;-2.598;2022-12-05T05:51:20;14.05;;;10.10;;
56255;SDS011;57229;51.432;-2.598;2022-12-05T05:53:52;14.27;;;9.73;;
56255;SDS011;57229;51.432;-2.598;2022-12-05T05:56:20;12.93;;;9.52;;
56255;SDS011;57229;51.432;-2.598;2022-12-05T05:59:07;14.35;;;9.95;;
56255;SDS011;57229;51.432;-2.598;2022-12-05T06:01:34;13.05;;;10.02;;
56255;SDS011;57229;51.432;-2.598;2022-12-05T06:04:01;13.45;;;9.68;;
56255;SDS011;57229;51.432;-2.598;2022-12-05T06:06:27;14.40;;;9.63;;
56255;SDS011;57229;51.432;-2.598;2022-12-05T06:08:53;14.05;;;10.00;;
56255;SDS011;57229;51.432;-2.598;2022-12-05T06:11:30;14.80;;;9.55;;
56255;SDS011;57229;51.432;-2.598;2022-12-05T06:13:56;14.38;;;9.95;;
56255;SDS011;57229;51.432;-2.598;2022-12-05T06:16:25;14.07;;;10.25;;
56255;SDS011;57229;51.432;-2.598;2022-12-05T06:18:51;13.32;;;10.15;;
56255;SDS011;57229;51.432;-2.598;2022-12-05T06:21:17;13.20;;;9.80;;
56255;SDS011;57229;51.432;-2.598;2022-12-05T06:23:43;13.70;;;9.88;;
56255;SDS011;57229;51.432;-2.598;2022-12-05T06:26:11;13.80;;;10.55;;
56255;SDS011;57229;51.432;-2.598;2022-12-05T06:28:41;13.57;;;10.13;;
56255;SDS011;57229;51.432;-2.598;2022-12-05T06:31:12;12.52;;;9.50;;
56255;SDS011;57229;51.432;-2.598;2022-12-05T06:33:40;16.55;;;10.20;;
56255;SDS011;57229;51.432;-2.598;2022-12-05T06:36:07;14.68;;;10.20;;
56255;SDS011;57229;51.432;-2.598;2022-12-05T06:38:34;12.95;;;9.77;;
56255;SDS011;57229;51.432;-2.598;2022-12-05T06:41:03;13.60;;;9.70;;
56255;SDS011;57229;51.432;-2.598;2022-12-05T06:43:36;15.05;;;10.50;;
56255;SDS011;57229;51.432;-2.598;2022-12-05T06:46:05;11.32;;;9.13;;
56255;SDS011;57229;51.432;-2.598;2022-12-05T06:48:32;13.65;;;10.15;;
56255;SDS011;57229;51.432;-2.598;2022-12-05T06:50:58;15.88;;;10.57;;
56255;SDS011;57229;51.432;-2.598;2022-12-05T06:53:24;13.63;;;10.50;;
56255;SDS011;57229;51.432;-2.598;2022-12-05T06:56:00;13.95;;;9.65;;
56255;SDS011;57229;51.432;-2.598;2022-12-05T06:58:28;14.55;;;10.40;;
56255;SDS011;57229;51.432;-2.598;2022-12-05T07:00:54;16.20;;;9.77;;
56255;SDS011;57229;51.432;-2.598;2022-12-05T07:03:39;14.35;;;9.00;;
56255;SDS011;57229;51.432;-2.598;2022-12-05T07:06:06;13.02;;;8.90;;
56255;SDS011;57229;51.432;-2.598;2022-12-05T07:08:35;12.95;;;9.13;;
56255;SDS011;57229;51.432;-2.598;2022-12-05T07:11:04;13.65;;;9.73;;
56255;SDS011;57229;51.432;-2.598;2022-12-05T07:13:32;13.00;;;9.38;;
56255;SDS011;57229;51.432;-2.598;2022-12-05T07:16:01;15.43;;;9.57;;
56255;SDS011;57229;51.432;-2.598;2022-12-05T07:18:33;13.25;;;9.30;;
56255;SDS011;57229;51.432;-2.598;2022-12-05T07:21:10;13.77;;;9.73;;
56255;SDS011;57229;51.432;-2.598;2022-12-05T07:23:51;12.05;;;8.85;;
56255;SDS011;57229;51.432;-2.598;2022-12-05T07:26:20;13.27;;;9.23;;
56255;SDS011;57229;51.432;-2.598;2022-12-05T07:28:50;11.65;;;8.80;;
56255;SDS011;57229;51.432;-2.598;2022-12-05T07:33:50;12.38;;;9.23;;
56255;SDS011;57229;51.432;-2.598;2022-12-05T07:36:27;13.63;;;8.90;;
56255;SDS011;57229;51.432;-2.598;2022-12-05T07:38:56;13.73;;;9.13;;
56255;SDS011;57229;51.432;-2.598;2022-12-05T07:41:23;13.73;;;9.57;;
56255;SDS011;57229;51.432;-2.598;2022-12-05T07:43:54;11.40;;;8.75;;
56255;SDS011;57229;51.432;-2.598;2022-12-05T07:46:21;11.77;;;9.25;;
56255;SDS011;57229;51.432;-2.598;2022-12-05T07:48:47;15.68;;;9.38;;
56255;SDS011;57229;51.432;-2.598;2022-12-05T07:51:14;12.45;;;9.43;;
56255;SDS011;57229;51.432;-2.598;2022-12-05T07:53:40;15.25;;;9.30;;
56255;SDS011;57229;51.432;-2.598;2022-12-05T07:56:08;13.13;;;9.63;;
56255;SDS011;57229;51.432;-2.598;2022-12-05T07:58:35;14.60;;;9.70;;
56255;SDS011;57229;51.432;-2.598;2022-12-05T08:01:09;12.13;;;9.18;;
56255;SDS011;57229;51.432;-2.598;2022-12-05T08:03:36;14.38;;;9.98;;
56255;SDS011;57229;51.432;-2.598;2022-12-05T08:06:07;15.40;;;9.35;;
56255;SDS011;57229;51.432;-2.598;2022-12-05T08:08:35;12.05;;;8.80;;
56255;SDS011;57229;51.432;-2.598;2022-12-05T08:11:04;13.88;;;9.07;;
56255;SDS011;57229;51.432;-2.598;2022-12-05T08:13:31;13.00;;;9.48;;
56255;SDS011;57229;51.432;-2.598;2022-12-05T08:16:04;13.93;;;9.55;;
56255;SDS011;57229;51.432;-2.598;2022-12-05T08:18:31;13.32;;;9.95;;
56255;SDS011;57229;51.432;-2.598;2022-12-05T08:21:01;12.15;;;9.00;;
56255;SDS011;57229;51.432;-2.598;2022-12-05T08:23:28;14.60;;;9.52;;
56255;SDS011;57229;51.432;-2.598;2022-12-05T08:25:55;17.95;;;10.07;;
56255;SDS011;57229;51.432;-2.598;2022-12-05T08:28:24;14.45;;;9.82;;
56255;SDS011;57229;51.432;-2.598;2022-12-05T08:30:50;15.48;;;9.85;;
56255;SDS011;57229;51.432;-2.598;2022-12-05T08:33:16;16.05;;;9.88;;
56255;SDS011;57229;51.432;-2.598;2022-12-05T08:35:42;15.55;;;9.80;;
56255;SDS011;57229;51.432;-2.598;2022-12-05T08:38:07;13.82;;;9.70;;
56255;SDS011;57229;51.432;-2.598;2022-12-05T08:40:33;15.90;;;9.90;;
56255;SDS011;57229;51.432;-2.598;2022-12-05T08:42:59;13.90;;;9.38;;
56255;SDS011;57229;51.432;-2.598;2022-12-05T08:45:24;26.88;;;10.55;;
56255;SDS011;57229;51.432;-2.598;2022-12-05T08:47:50;15.98;;;9.65;;
56255;SDS011;57229;51.432;-2.598;2022-12-05T08:50:16;17.88;;;10.00;;
56255;SDS011;57229;51.432;-2.598;2022-12-05T08:52:42;18.83;;;10.35;;
56255;SDS011;57229;51.432;-2.598;2022-12-05T08:55:07;17.13;;;10.40;;
56255;SDS011;57229;51.432;-2.598;2022-12-05T08:57:33;16.30;;;9.70;;
56255;SDS011;57229;51.432;-2.598;2022-12-05T08:59:59;21.35;;;10.25;;
56255;SDS011;57229;51.432;-2.598;2022-12-05T09:02:25;17.50;;;10.18;;
56255;SDS011;57229;51.432;-2.598;2022-12-05T09:04:50;22.90;;;10.63;;
56255;SDS011;57229;51.432;-2.598;2022-12-05T09:07:16;15.65;;;10.63;;
56255;SDS011;57229;51.432;-2.598;2022-12-05T09:09:42;18.20;;;10.50;;
56255;SDS011;57229;51.432;-2.598;2022-12-05T09:12:07;25.98;;;10.75;;
56255;SDS011;57229;51.432;-2.598;2022-12-05T09:14:33;19.33;;;10.38;;
56255;SDS011;57229;51.432;-2.598;2022-12-05T09:17:00;22.30;;;10.95;;
56255;SDS011;57229;51.432;-2.598;2022-12-05T09:19:26;18.20;;;10.95;;
56255;SDS011;57229;51.432;-2.598;2022-12-05T09:21:55;18.40;;;10.68;;
56255;SDS011;57229;51.432;-2.598;2022-12-05T09:24:22;20.92;;;10.10;;
56255;SDS011;57229;51.432;-2.598;2022-12-05T09:26:49;22.67;;;10.63;;
56255;SDS011;57229;51.432;-2.598;2022-12-05T09:29:15;19.83;;;10.95;;
56255;SDS011;57229;51.432;-2.598;2022-12-05T09:31:48;15.93;;;10.13;;
56255;SDS011;57229;51.432;-2.598;2022-12-05T09:35:11;18.05;;;10.70;;
56255;SDS011;57229;51.432;-2.598;2022-12-05T09:37:46;15.98;;;10.35;;
56255;SDS011;57229;51.432;-2.598;2022-12-05T09:40:20;18.90;;;10.73;;
56255;SDS011;57229;51.432;-2.598;2022-12-05T09:42:49;17.98;;;11.27;;
56255;SDS011;57229;51.432;-2.598;2022-12-05T09:45:27;19.80;;;11.10;;
56255;SDS011;57229;51.432;-2.598;2022-12-05T09:48:04;16.73;;;10.90;;
56255;SDS011;57229;51.432;-2.598;2022-12-05T09:50:44;19.38;;;11.27;;
56255;SDS011;57229;51.432;-2.598;2022-12-05T10:04:52;19.75;;;10.98;;
56255;SDS011;57229;51.432;-2.598;2022-12-05T10:07:54;18.75;;;11.75;;
56255;SDS011;57229;51.432;-2.598;2022-12-05T10:10:31;16.60;;;11.23;;
56255;SDS011;57229;51.432;-2.598;2022-12-05T10:16:36;16.05;;;10.18;;
56255;SDS011;57229;51.432;-2.598;2022-12-05T10:19:12;16.88;;;10.90;;
56255;SDS011;57229;51.432;-2.598;2022-12-05T10:21:51;19.33;;;11.40;;
56255;SDS011;57229;51.432;-2.598;2022-12-05T10:24:36;16.85;;;10.48;;
56255;SDS011;57229;51.432;-2.598;2022-12-05T10:27:19;17.30;;;10.27;;
56255;SDS011;57229;51.432;-2.598;2022-12-05T10:30:02;16.63;;;11.07;;
56255;SDS011;57229;51.432;-2.598;2022-12-05T10:32:31;15.38;;;10.30;;
56255;SDS011;57229;51.432;-2.598;2022-12-05T10:35:35;15.93;;;10.70;;
56255;SDS011;57229;51.432;-2.598;2022-12-05T10:38:05;17.73;;;10.80;;
56255;SDS011;57229;51.432;-2.598;2022-12-05T10:40:36;14.98;;;10.57;;
56255;SDS011;57229;51.432;-2.598;2022-12-05T10:43:09;16.45;;;11.05;;
56255;SDS011;57229;51.432;-2.598;2022-12-05T10:45:42;19.33;;;11.43;;
56255;SDS011;57229;51.432;-2.598;2022-12-05T10:48:13;15.73;;;10.98;;
56255;SDS011;57229;51.432;-2.598;2022-12-05T10:50:41;15.95;;;11.05;;
56255;SDS011;57229;51.432;-2.598;2022-12-05T10:53:12;14.55;;;11.18;;
56255;SDS011;57229;51.432;-2.598;2022-12-05T10:56:01;16.88;;;11.30;;
56255;SDS011;57229;51.432;-2.598;2022-12-05T10:58:27;19.00;;;11.95;;
56255;SDS011;57229;51.432;-2.598;2022-12-05T11:00:54;15.30;;;11.07;;
56255;SDS011;57229;51.432;-2.598;2022-12-05T11:05:50;14.73;;;11.32;;
56255;SDS011;57229;51.432;-2.598;2022-12-05T11:08:21;17.00;;;11.35;;
56255;SDS011;57229;51.432;-2.598;2022-12-05T11:11:02;15.05;;;11.25;;
56255;SDS011;57229;51.432;-2.598;2022-12-05T11:13:30;13.70;;;10.45;;
56255;SDS011;57229;51.432;-2.598;2022-12-05T11:15:57;17.08;;;10.85;;
56255;SDS011;57229;51.432;-2.598;2022-12-05T11:18:28;14.35;;;10.40;;
56255;SDS011;57229;51.432;-2.598;2022-12-05T11:20:56;34.38;;;11.27;;
56255;SDS011;57229;51.432;-2.598;2022-12-05T11:23:34;25.60;;;11.43;;
56255;SDS011;57229;51.432;-2.598;2022-12-05T11:25:59;21.20;;;11.80;;
56255;SDS011;57229;51.432;-2.598;2022-12-05T11:28:30;17.60;;;11.43;;
56255;SDS011;57229;51.432;-2.598;2022-12-05T11:31:01;19.85;;;10.85;;
56255;SDS011;57229;51.432;-2.598;2022-12-05T11:33:33;16.58;;;10.25;;
56255;SDS011;57229;51.432;-2.598;2022-12-05T11:36:02;13.98;;;10.40;;
56255;SDS011;57229;51.432;-2.598;2022-12-05T11:38:29;15.98;;;10.68;;
56255;SDS011;57229;51.432;-2.598;2022-12-05T11:49:30;15.07;;;10.30;;
56255;SDS011;57229;51.432;-2.598;2022-12-05T11:52:24;15.57;;;10.35;;
56255;SDS011;57229;51.432;-2.598;2022-12-05T11:55:18;15.70;;;10.43;;
56255;SDS011;57229;51.432;-2.598;2022-12-05T12:00:24;17.58;;;10.88;;
56255;SDS011;57229;51.432;-2.598;2022-12-05T12:08:49;14.35;;;10.38;;
56255;SDS011;57229;51.432;-2.598;2022-12-05T12:24:54;14.27;;;10.23;;
56255;SDS011;57229;51.432;-2.598;2022-12-05T12:31:05;12.15;;;9.63;;
56255;SDS011;57229;51.432;-2.598;2022-12-05T12:35:58;12.85;;;10.05;;
56255;SDS011;57229;51.432;-2.598;2022-12-05T13:01:40;10.52;;;8.18;;
56255;SDS011;57229;51.432;-2.598;2022-12-05T13:08:10;11.75;;;9.15;;
56255;SDS011;57229;51.432;-2.598;2022-12-05T13:14:25;11.05;;;8.27;;
56255;SDS011;57229;51.432;-2.598;2022-12-05T13:16:57;9.85;;;8.65;;
56255;SDS011;57229;51.432;-2.598;2022-12-05T13:19:31;11.27;;;8.45;;
56255;SDS011;57229;51.432;-2.598;2022-12-05T13:22:31;9.15;;;7.63;;
56255;SDS011;57229;51.432;-2.598;2022-12-05T13:28:06;10.27;;;7.88;;
56255;SDS011;57229;51.432;-2.598;2022-12-05T13:37:59;11.32;;;7.93;;
56255;SDS011;57229;51.432;-2.598;2022-12-05T13:40:49;13.65;;;7.80;;
56255;SDS011;57229;51.432;-2.598;2022-12-05T13:43:40;9.95;;;7.13;;
56255;SDS011;57229;51.432;-2.598;2022-12-05T13:46:28;10.88;;;7.22;;
56255;SDS011;57229;51.432;-2.598;2022-12-05T13:49:35;9.48;;;6.82;;
56255;SDS011;57229;51.432;-2.598;2022-12-05T13:52:16;10.27;;;7.53;;
56255;SDS011;57229;51.432;-2.598;2022-12-05T13:58:53;10.52;;;7.20;;
56255;SDS011;57229;51.432;-2.598;2022-12-05T14:07:51;9.52;;;6.65;;
56255;SDS011;57229;51.432;-2.598;2022-12-05T14:17:41;8.82;;;6.68;;
56255;SDS011;57229;51.432;-2.598;2022-12-05T14:29:16;9.95;;;7.03;;
56255;SDS011;57229;51.432;-2.598;2022-12-05T14:32:27;12.93;;;7.10;;
56255;SDS011;57229;51.432;-2.598;2022-12-05T14:35:10;10.57;;;7.78;;
56255;SDS011;57229;51.432;-2.598;2022-12-05T14:37:59;9.77;;;7.43;;
56255;SDS011;57229;51.432;-2.598;2022-12-05T14:43:49;13.32;;;6.57;;
56255;SDS011;57229;51.432;-2.598;2022-12-05T14:46:28;9.88;;;6.50;;
56255;SDS011;57229;51.432;-2.598;2022-12-05T14:48:56;10.82;;;6.78;;
56255;SDS011;57229;51.432;-2.598;2022-12-05T14:54:03;11.77;;;7.30;;
56255;SDS011;57229;51.432;-2.598;2022-12-05T14:56:45;10.15;;;6.70;;
56255;SDS011;57229;51.432;-2.598;2022-12-05T14:59:27;9.38;;;6.10;;
56255;SDS011;57229;51.432;-2.598;2022-12-05T15:01:57;9.02;;;6.72;;
56255;SDS011;57229;51.432;-2.598;2022-12-05T15:04:50;9.98;;;6.88;;
56255;SDS011;57229;51.432;-2.598;2022-12-05T15:07:34;11.77;;;6.65;;
56255;SDS011;57229;51.432;-2.598;2022-12-05T15:12:59;12.20;;;6.28;;
56255;SDS011;57229;51.432;-2.598;2022-12-05T15:21:41;9.95;;;6.20;;
56255;SDS011;57229;51.432;-2.598;2022-12-05T15:27:20;7.70;;;5.97;;
56255;SDS011;57229;51.432;-2.598;2022-12-05T15:29:46;10.45;;;6.10;;
56255;SDS011;57229;51.432;-2.598;2022-12-05T15:32:15;11.15;;;5.88;;
56255;SDS011;57229;51.432;-2.598;2022-12-05T15:35:00;9.18;;;6.10;;
56255;SDS011;57229;51.432;-2.598;2022-12-05T15:40:11;10.95;;;6.15;;
56255;SDS011;57229;51.432;-2.598;2022-12-05T15:47:43;7.97;;;5.47;;
56255;SDS011;57229;51.432;-2.598;2022-12-05T15:50:18;10.60;;;5.95;;
56255;SDS011;57229;51.432;-2.598;2022-12-05T15:52:51;11.57;;;6.35;;
56255;SDS011;57229;51.432;-2.598;2022-12-05T15:55:38;14.13;;;6.03;;
56255;SDS011;57229;51.432;-2.598;2022-12-05T16:00:50;15.32;;;6.40;;
56255;SDS011;57229;51.432;-2.598;2022-12-05T16:03:33;18.33;;;8.13;;
56255;SDS011;57229;51.432;-2.598;2022-12-05T16:06:09;17.95;;;8.10;;
56255;SDS011;57229;51.432;-2.598;2022-12-05T16:08:46;21.27;;;7.27;;
56255;SDS011;57229;51.432;-2.598;2022-12-05T16:11:13;27.45;;;7.60;;
56255;SDS011;57229;51.432;-2.598;2022-12-05T16:14:02;17.90;;;8.35;;
56255;SDS011;57229;51.432;-2.598;2022-12-05T16:16:30;19.35;;;7.60;;
56255;SDS011;57229;51.432;-2.598;2022-12-05T16:19:10;24.90;;;8.68;;
56255;SDS011;57229;51.432;-2.598;2022-12-05T16:21:46;21.15;;;8.50;;
56255;SDS011;57229;51.432;-2.598;2022-12-05T16:24:40;25.70;;;9.00;;
56255;SDS011;57229;51.432;-2.598;2022-12-05T16:27:32;23.40;;;9.05;;
56255;SDS011;57229;51.432;-2.598;2022-12-05T16:30:19;22.33;;;9.32;;
56255;SDS011;57229;51.432;-2.598;2022-12-05T16:33:05;23.65;;;8.65;;
56255;SDS011;57229;51.432;-2.598;2022-12-05T16:35:41;24.33;;;9.25;;
56255;SDS011;57229;51.432;-2.598;2022-12-05T16:43:54;27.25;;;9.13;;
56255;SDS011;57229;51.432;-2.598;2022-12-05T16:46:59;24.23;;;9.73;;
56255;SDS011;57229;51.432;-2.598;2022-12-05T16:49:33;24.10;;;9.45;;
56255;SDS011;57229;51.432;-2.598;2022-12-05T16:54:53;24.33;;;8.85;;
56255;SDS011;57229;51.432;-2.598;2022-12-05T17:03:50;22.30;;;8.90;;
56255;SDS011;57229;51.432;-2.598;2022-12-05T17:06:59;15.55;;;8.18;;
56255;SDS011;57229;51.432;-2.598;2022-12-05T17:09:28;18.30;;;9.15;;
56255;SDS011;57229;51.432;-2.598;2022-12-05T17:11:59;21.65;;;9.18;;
56255;SDS011;57229;51.432;-2.598;2022-12-05T17:14:43;22.55;;;8.63;;
56255;SDS011;57229;51.432;-2.598;2022-12-05T17:17:32;20.02;;;8.73;;
56255;SDS011;57229;51.432;-2.598;2022-12-05T17:20:01;18.60;;;8.45;;
56255;SDS011;57229;51.432;-2.598;2022-12-05T17:22:31;21.70;;;8.48;;
56255;SDS011;57229;51.432;-2.598;2022-12-05T17:25:00;19.23;;;7.68;;
56255;SDS011;57229;51.432;-2.598;2022-12-05T17:27:29;25.38;;;8.43;;
56255;SDS011;57229;51.432;-2.598;2022-12-05T17:30:05;21.30;;;8.68;;
56255;SDS011;57229;51.432;-2.598;2022-12-05T17:32:33;23.02;;;8.93;;
56255;SDS011;57229;51.432;-2.598;2022-12-05T17:34:59;19.00;;;8.18;;
56255;SDS011;57229;51.432;-2.598;2022-12-05T17:37:30;16.35;;;7.55;;
56255;SDS011;57229;51.432;-2.598;2022-12-05T17:40:26;15.02;;;8.25;;
56255;SDS011;57229;51.432;-2.598;2022-12-05T17:42:55;17.25;;;7.35;;
56255;SDS011;57229;51.432;-2.598;2022-12-05T17:46:16;30.85;;;7.82;;
56255;SDS011;57229;51.432;-2.598;2022-12-05T17:48:52;19.48;;;7.55;;
56255;SDS011;57229;51.432;-2.598;2022-12-05T17:51:42;19.35;;;7.70;;
56255;SDS011;57229;51.432;-2.598;2022-12-05T17:54:09;19.45;;;7.65;;
56255;SDS011;57229;51.432;-2.598;2022-12-05T17:56:34;30.48;;;8.05;;
56255;SDS011;57229;51.432;-2.598;2022-12-05T18:01:52;17.00;;;7.18;;
56255;SDS011;57229;51.432;-2.598;2022-12-05T18:04:19;16.80;;;7.18;;
56255;SDS011;57229;51.432;-2.598;2022-12-05T18:06:48;19.27;;;7.03;;
56255;SDS011;57229;51.432;-2.598;2022-12-05T18:09:18;20.20;;;8.10;;
56255;SDS011;57229;51.432;-2.598;2022-12-05T18:11:55;25.98;;;7.68;;
56255;SDS011;57229;51.432;-2.598;2022-12-05T18:14:36;19.10;;;7.85;;
56255;SDS011;57229;51.432;-2.598;2022-12-05T18:17:09;16.73;;;7.78;;
56255;SDS011;57229;51.432;-2.598;2022-12-05T18:19:41;22.30;;;8.25;;
56255;SDS011;57229;51.432;-2.598;2022-12-05T18:34:22;22.77;;;8.32;;
56255;SDS011;57229;51.432;-2.598;2022-12-05T18:37:34;19.85;;;8.13;;
56255;SDS011;57229;51.432;-2.598;2022-12-05T18:40:24;21.92;;;8.10;;
56255;SDS011;57229;51.432;-2.598;2022-12-05T18:42:50;16.88;;;7.55;;